createdAt,value
2022-09-07T00:01:02.788Z,18.10
2022-09-07T00:03:29.926Z,18.10
2022-09-07T00:05:56.809Z,18.10
2022-09-07T00:08:26.813Z,18.00
2022-09-07T00:10:59.014Z,18.00
2022-09-07T00:13:28.054Z,18.00
2022-09-07T00:15:55.161Z,18.00
2022-09-07T00:18:22.143Z,18.10
2022-09-07T00:21:01.959Z,18.10
2022-09-07T00:23:30.362Z,18.10
2022-09-07T00:26:01.700Z,18.10
2022-09-07T00:28:29.407Z,18.20
2022-09-07T00:30:56.234Z,18.20
2022-09-07T00:33:23.219Z,18.10
2022-09-07T00:35:50.701Z,18.10
2022-09-07T00:38:17.721Z,18.10
2022-09-07T00:40:44.417Z,18.10
2022-09-07T00:43:18.145Z,18.10
2022-09-07T00:45:44.799Z,18.10
2022-09-07T00:48:16.882Z,18.10
2022-09-07T00:50:55.487Z,18.00
2022-09-07T00:53:30.420Z,18.00
2022-09-07T00:55:59.622Z,18.00
2022-09-07T00:58:27.097Z,18.00
2022-09-07T01:00:55.171Z,18.00
2022-09-07T01:03:30.889Z,18.00
2022-09-07T01:06:00.687Z,18.10
2022-09-07T01:08:28.676Z,18.10
2022-09-07T01:10:57.674Z,18.10
2022-09-07T01:13:24.467Z,18.20
2022-09-07T01:16:16.449Z,18.10
2022-09-07T01:19:01.636Z,18.20
2022-09-07T01:22:05.977Z,18.20
2022-09-07T01:24:32.596Z,18.30
2022-09-07T01:27:43.953Z,18.40
2022-09-07T01:30:18.741Z,18.40
2022-09-07T01:33:21.296Z,18.40
2022-09-07T01:36:01.689Z,18.40
2022-09-07T01:38:40.960Z,18.50
2022-09-07T01:41:11.397Z,18.50
2022-09-07T01:43:59.597Z,18.50
2022-09-07T01:46:43.618Z,18.60
2022-09-07T01:49:17.591Z,18.60
2022-09-07T01:51:48.403Z,18.70
2022-09-07T01:54:44.590Z,18.60
2022-09-07T01:57:19.036Z,18.50
2022-09-07T01:59:53.078Z,18.40
2022-09-07T02:02:30.956Z,18.30
2022-09-07T02:05:12.216Z,18.20
2022-09-07T02:08:07.970Z,18.10
2022-09-07T02:10:45.183Z,18.10
2022-09-07T02:13:21.715Z,18.10
2022-09-07T02:15:54.755Z,18.10
2022-09-07T02:18:22.809Z,18.00
2022-09-07T02:20:53.415Z,18.00
2022-09-07T02:23:28.094Z,18.00
2022-09-07T02:26:02.471Z,18.00
2022-09-07T02:28:35.403Z,17.90
2022-09-07T02:31:02.944Z,17.90
2022-09-07T02:33:30.054Z,17.90
2022-09-07T02:35:57.676Z,17.90
2022-09-07T02:38:24.966Z,18.00
2022-09-07T02:40:56.833Z,18.00
2022-09-07T02:43:25.344Z,18.10
2022-09-07T02:46:28.422Z,18.10
2022-09-07T02:49:01.340Z,18.20
2022-09-07T02:51:47.409Z,18.10
2022-09-07T02:54:24.247Z,18.00
2022-09-07T02:57:08.638Z,18.00
2022-09-07T03:00:00.026Z,18.00
2022-09-07T03:02:36.453Z,18.00
2022-09-07T03:05:13.177Z,18.00
2022-09-07T03:07:47.618Z,18.10
2022-09-07T03:10:15.789Z,18.20
2022-09-07T03:12:45.574Z,18.20
2022-09-07T03:15:24.956Z,18.20
2022-09-07T03:17:51.802Z,18.20
2022-09-07T03:20:19.144Z,18.10
2022-09-07T03:22:47.222Z,18.20
2022-09-07T03:25:14.425Z,18.20
2022-09-07T03:27:41.410Z,18.20
2022-09-07T03:30:09.997Z,18.30
2022-09-07T03:32:38.442Z,18.30
2022-09-07T03:35:06.880Z,18.30
2022-09-07T03:37:36.491Z,18.40
2022-09-07T03:40:05.463Z,18.50
2022-09-07T03:42:32.126Z,18.40
2022-09-07T03:44:58.876Z,18.40
2022-09-07T03:47:25.529Z,18.40
2022-09-07T03:49:52.319Z,18.40
2022-09-07T03:52:19.024Z,18.40
2022-09-07T03:54:46.270Z,18.40
2022-09-07T03:57:13.231Z,18.30
2022-09-07T03:59:39.860Z,18.30
2022-09-07T04:02:06.688Z,18.20
2022-09-07T04:04:33.716Z,18.10
2022-09-07T04:07:00.349Z,18.10
2022-09-07T04:09:26.996Z,18.10
2022-09-07T04:11:53.658Z,18.20
2022-09-07T04:14:20.508Z,18.20
2022-09-07T04:16:47.760Z,18.20
2022-09-07T04:19:14.781Z,18.20
2022-09-07T04:21:43.141Z,18.20
2022-09-07T04:24:09.886Z,18.20
2022-09-07T04:26:37.152Z,18.20
2022-09-07T04:29:04.492Z,18.20
2022-09-07T04:31:34.143Z,18.20
2022-09-07T04:34:01.202Z,18.10
2022-09-07T04:36:28.578Z,18.10
2022-09-07T04:38:57.403Z,18.10
2022-09-07T04:41:24.350Z,18.10
2022-09-07T04:43:54.819Z,18.00
2022-09-07T04:46:22.960Z,18.00
2022-09-07T04:48:51.725Z,17.90
2022-09-07T04:51:19.310Z,18.00
2022-09-07T04:53:51.525Z,17.80
2022-09-07T04:56:19.864Z,17.90
2022-09-07T04:58:47.397Z,17.90
2022-09-07T05:01:17.962Z,17.90
2022-09-07T05:03:45.144Z,17.80
2022-09-07T05:06:14.063Z,17.80
2022-09-07T05:08:46.678Z,17.80
2022-09-07T05:11:14.855Z,17.80
2022-09-07T05:13:41.927Z,17.80
2022-09-07T05:16:20.355Z,17.80
2022-09-07T05:18:51.831Z,17.80
2022-09-07T05:21:24.399Z,17.90
2022-09-07T05:23:53.699Z,17.90
2022-09-07T05:26:22.500Z,17.90
2022-09-07T05:28:50.411Z,17.80
2022-09-07T05:31:20.002Z,17.80
2022-09-07T05:36:42.060Z,17.80
2022-09-07T05:39:09.439Z,17.80
2022-09-07T05:41:36.454Z,17.70
2022-09-07T05:46:52.240Z,17.80
2022-09-07T05:49:18.907Z,17.80
2022-09-07T05:51:45.549Z,17.80
2022-09-07T05:54:12.227Z,17.80
2022-09-07T05:56:39.001Z,17.70
2022-09-07T05:59:05.692Z,17.80
2022-09-07T06:01:32.701Z,17.80
2022-09-07T06:04:00.190Z,17.70
2022-09-07T06:06:27.071Z,17.70
2022-09-07T06:08:54.378Z,17.70
2022-09-07T06:11:23.369Z,17.70
2022-09-07T06:13:50.569Z,17.70
2022-09-07T06:16:18.557Z,17.70
2022-09-07T06:18:46.953Z,17.70
2022-09-07T06:21:14.826Z,17.70
2022-09-07T06:23:43.492Z,17.70
2022-09-07T06:26:11.328Z,17.70
2022-09-07T06:28:40.692Z,17.70
2022-09-07T06:31:13.233Z,17.70
2022-09-07T06:33:41.502Z,17.70
2022-09-07T06:36:12.611Z,17.70
2022-09-07T06:38:39.915Z,17.70
2022-09-07T06:43:57.694Z,17.80
2022-09-07T06:49:11.324Z,17.80
2022-09-07T06:51:38.789Z,17.80
2022-09-07T06:56:52.480Z,17.80
2022-09-07T06:59:19.255Z,17.90
2022-09-07T07:01:45.885Z,17.90
2022-09-07T07:04:13.203Z,17.90
2022-09-07T07:06:40.315Z,18.00
2022-09-07T07:09:08.621Z,18.00
2022-09-07T07:11:37.104Z,18.10
2022-09-07T07:14:03.869Z,18.10
2022-09-07T07:16:30.762Z,18.20
2022-09-07T07:18:57.691Z,18.20
2022-09-07T07:21:24.518Z,18.30
2022-09-07T07:23:53.013Z,18.40
2022-09-07T07:26:23.644Z,18.50
2022-09-07T07:29:07.076Z,18.40
2022-09-07T07:31:34.945Z,18.40
2022-09-07T07:34:20.967Z,18.50
2022-09-07T07:37:06.172Z,18.50
2022-09-07T07:42:21.026Z,18.80
2022-09-07T07:44:48.004Z,18.80
2022-09-07T07:47:14.605Z,18.90
2022-09-07T07:49:41.197Z,18.90
2022-09-07T07:54:54.348Z,19.10
2022-09-07T07:57:21.009Z,19.30
2022-09-07T07:59:47.611Z,19.30
2022-09-07T08:02:16.311Z,19.30
2022-09-07T08:04:43.391Z,19.20
2022-09-07T08:07:11.898Z,19.20
2022-09-07T08:09:44.114Z,19.30
2022-09-07T08:12:16.033Z,19.40
2022-09-07T08:14:42.918Z,19.40
2022-09-07T08:17:11.767Z,19.50
2022-09-07T08:19:39.083Z,19.60
2022-09-07T08:22:06.573Z,19.70
2022-09-07T08:24:33.406Z,19.80
2022-09-07T08:27:00.168Z,19.80
2022-09-07T08:29:27.179Z,19.90
2022-09-07T08:31:54.141Z,20.00
2022-09-07T08:34:21.813Z,20.00
2022-09-07T08:36:48.639Z,20.10
2022-09-07T08:39:15.309Z,20.20
2022-09-07T08:41:48.751Z,20.20
2022-09-07T08:44:18.320Z,20.30
2022-09-07T08:46:56.690Z,20.50
2022-09-07T08:49:47.210Z,20.60
2022-09-07T08:52:15.602Z,20.80
2022-09-07T08:54:45.390Z,21.00
2022-09-07T08:57:20.830Z,21.10
2022-09-07T09:00:08.653Z,21.20
2022-09-07T09:02:42.481Z,21.30
2022-09-07T09:05:40.012Z,21.40
2022-09-07T09:08:29.012Z,21.60
2022-09-07T09:11:03.639Z,21.80
2022-09-07T09:13:52.204Z,22.10
2022-09-07T09:16:45.724Z,22.30
2022-09-07T09:19:49.542Z,22.60
2022-09-07T09:22:22.698Z,22.70
2022-09-07T09:25:20.190Z,22.70
2022-09-07T09:27:48.331Z,22.60
2022-09-07T09:30:21.265Z,22.50
2022-09-07T09:32:50.599Z,22.60
2022-09-07T09:35:32.484Z,22.60
2022-09-07T09:37:59.117Z,22.70
2022-09-07T09:40:36.157Z,22.80
2022-09-07T09:43:07.146Z,22.90
2022-09-07T09:48:31.445Z,23.00
2022-09-07T09:54:06.037Z,23.00
2022-09-07T09:56:41.226Z,23.00
2022-09-07T10:05:26.216Z,23.20
2022-09-07T10:07:53.666Z,23.20
2022-09-07T10:10:20.856Z,23.40
2022-09-07T10:12:47.539Z,23.40
2022-09-07T10:15:33.640Z,23.50
2022-09-07T10:18:09.528Z,23.50
2022-09-07T10:20:38.354Z,23.60
2022-09-07T10:23:18.011Z,23.80
2022-09-07T10:25:44.690Z,24.00
2022-09-07T10:28:14.335Z,24.20
2022-09-07T10:31:18.408Z,24.30
2022-09-07T10:36:53.067Z,24.40
2022-09-07T10:39:26.127Z,24.50
2022-09-07T10:42:09.855Z,24.60
2022-09-07T10:44:42.928Z,24.60
2022-09-07T10:47:27.469Z,24.50
2022-09-07T10:53:40.308Z,24.70
2022-09-07T10:56:37.954Z,25.00
2022-09-07T10:59:21.751Z,25.10
2022-09-07T11:02:00.307Z,25.20
2022-09-07T11:04:33.647Z,25.40
2022-09-07T11:07:15.611Z,25.60
2022-09-07T11:10:25.281Z,25.90
2022-09-07T11:12:56.160Z,26.10
2022-09-07T11:15:29.281Z,26.40
2022-09-07T11:18:03.239Z,26.60
2022-09-07T11:20:35.535Z,26.70
2022-09-07T11:23:25.579Z,26.80
2022-09-07T11:26:21.560Z,26.80
2022-09-07T11:32:11.954Z,26.20
2022-09-07T11:34:46.703Z,25.90
2022-09-07T11:37:38.135Z,25.50
2022-09-07T11:40:17.715Z,25.10
2022-09-07T11:43:02.908Z,24.90
2022-09-07T11:45:56.533Z,24.70
2022-09-07T11:48:46.950Z,24.50
2022-09-07T11:51:20.531Z,24.40
2022-09-07T11:53:53.350Z,24.50
2022-09-07T11:56:37.659Z,24.60
2022-09-07T11:59:23.758Z,24.80
2022-09-07T12:02:36.725Z,25.30
2022-09-07T12:05:28.155Z,25.50
2022-09-07T12:08:14.506Z,25.60
2022-09-07T12:11:08.492Z,25.60
2022-09-07T12:13:59.976Z,25.40
2022-09-07T12:16:29.702Z,25.50
2022-09-07T12:19:21.360Z,25.70
2022-09-07T12:21:54.615Z,25.80
2022-09-07T12:24:36.969Z,25.80
2022-09-07T12:27:10.191Z,26.00
2022-09-07T12:29:37.319Z,26.10
2022-09-07T12:32:53.431Z,26.30
2022-09-07T12:34:54.679Z,26.40
2022-09-07T12:37:27.027Z,26.50
2022-09-07T12:40:28.135Z,26.60
2022-09-07T12:43:12.995Z,26.70
2022-09-07T12:45:39.580Z,26.50
2022-09-07T12:48:06.163Z,26.40
2022-09-07T12:50:42.835Z,26.20
2022-09-07T12:53:58.023Z,26.10
2022-09-07T12:57:28.957Z,26.30
2022-09-07T13:00:14.023Z,26.30
2022-09-07T13:03:03.867Z,26.20
2022-09-07T13:05:54.027Z,25.90
2022-09-07T13:08:57.430Z,25.80
2022-09-07T13:11:42.464Z,25.90
2022-09-07T13:14:16.026Z,25.90
2022-09-07T13:20:06.898Z,26.20
2022-09-07T13:22:33.451Z,26.30
2022-09-07T13:25:20.640Z,26.30
2022-09-07T13:28:26.964Z,26.30
2022-09-07T13:31:07.248Z,26.30
2022-09-07T13:33:44.676Z,26.30
2022-09-07T13:36:37.545Z,26.20
2022-09-07T13:39:09.511Z,26.20
2022-09-07T13:41:42.161Z,26.30
2022-09-07T13:44:26.170Z,26.30
2022-09-07T13:47:12.392Z,26.40
2022-09-07T13:50:06.063Z,26.40
2022-09-07T13:52:51.249Z,26.40
2022-09-07T13:55:25.950Z,26.10
2022-09-07T13:58:22.091Z,26.00
2022-09-07T14:00:55.996Z,26.30
2022-09-07T14:03:25.311Z,26.40
2022-09-07T14:06:26.081Z,26.50
2022-09-07T14:08:56.452Z,26.60
2022-09-07T14:11:41.694Z,26.50
2022-09-07T14:14:16.195Z,26.50
2022-09-07T14:16:49.180Z,26.30
2022-09-07T14:19:24.090Z,26.30
2022-09-07T14:22:02.912Z,26.40
2022-09-07T14:24:33.359Z,26.50
2022-09-07T14:27:00.704Z,26.70
2022-09-07T14:29:31.061Z,26.70
2022-09-07T14:31:59.927Z,26.50
2022-09-07T14:34:32.518Z,26.30
2022-09-07T14:37:03.615Z,26.20
2022-09-07T14:39:34.026Z,26.10
2022-09-07T14:42:03.235Z,26.20
2022-09-07T14:44:42.838Z,26.20
2022-09-07T14:47:18.922Z,26.30
2022-09-07T14:49:52.472Z,26.10
2022-09-07T14:52:24.730Z,26.10
2022-09-07T14:54:52.725Z,26.10
2022-09-07T14:57:19.294Z,26.10
2022-09-07T14:59:48.019Z,26.10
2022-09-07T15:02:29.779Z,26.10
2022-09-07T15:05:14.963Z,26.10
2022-09-07T15:07:49.715Z,26.10
2022-09-07T15:10:28.131Z,26.10
2022-09-07T15:12:57.000Z,26.10
2022-09-07T15:15:31.779Z,26.10
2022-09-07T15:18:08.822Z,25.90
2022-09-07T15:20:43.950Z,25.90
2022-09-07T15:23:19.347Z,25.90
2022-09-07T15:25:51.885Z,25.90
2022-09-07T15:34:13.094Z,25.80
2022-09-07T15:36:42.636Z,25.90
2022-09-07T15:39:25.015Z,25.90
2022-09-07T15:41:52.163Z,25.90
2022-09-07T15:44:24.376Z,25.80
2022-09-07T15:49:45.780Z,25.60
2022-09-07T15:52:16.223Z,25.60
2022-09-07T15:54:43.484Z,25.50
2022-09-07T15:59:57.144Z,25.60
2022-09-07T16:05:10.821Z,25.60
2022-09-07T16:10:25.510Z,25.60
2022-09-07T16:15:45.266Z,25.30
2022-09-07T16:18:16.417Z,25.20
2022-09-07T16:20:43.874Z,25.10
2022-09-07T16:23:14.323Z,25.00
2022-09-07T16:25:43.076Z,24.90
2022-09-07T16:28:09.950Z,24.80
2022-09-07T16:30:40.340Z,24.80
2022-09-07T16:33:07.142Z,24.80
2022-09-07T16:35:33.851Z,24.80
2022-09-07T16:40:47.151Z,24.80
2022-09-07T16:43:13.773Z,24.80
2022-09-07T16:48:26.965Z,24.70
2022-09-07T16:51:00.326Z,24.60
2022-09-07T16:53:29.748Z,24.60
2022-09-07T16:56:08.245Z,24.50
2022-09-07T16:58:38.367Z,24.50
2022-09-07T17:01:11.311Z,24.40
2022-09-07T17:03:38.858Z,24.30
2022-09-07T17:06:08.121Z,24.20
2022-09-07T17:08:35.927Z,24.20
2022-09-07T17:11:08.369Z,24.10
2022-09-07T17:13:35.846Z,24.10
2022-09-07T17:16:03.997Z,24.00
2022-09-07T17:21:19.849Z,23.90
2022-09-07T17:23:54.275Z,23.80
2022-09-07T17:26:22.419Z,23.80
2022-09-07T17:28:50.411Z,23.70
2022-09-07T17:34:13.687Z,23.60
2022-09-07T17:36:40.523Z,23.60
2022-09-07T17:39:16.749Z,23.60
2022-09-07T17:41:45.547Z,23.50
2022-09-07T17:44:12.290Z,23.50
2022-09-07T17:46:39.295Z,23.40
2022-09-07T17:49:07.923Z,23.40
2022-09-07T17:51:35.865Z,23.30
2022-09-07T17:54:09.460Z,23.20
2022-09-07T17:56:36.982Z,23.10
2022-09-07T18:01:50.703Z,22.90
2022-09-07T18:04:17.590Z,22.70
2022-09-07T18:06:44.306Z,22.70
2022-09-07T18:09:11.754Z,22.60
2022-09-07T18:11:47.325Z,22.50
2022-09-07T18:14:15.452Z,22.40
2022-09-07T18:16:43.817Z,22.30
2022-09-07T18:19:11.718Z,22.30
2022-09-07T18:21:40.930Z,22.20
2022-09-07T18:24:18.752Z,22.10
2022-09-07T18:26:50.946Z,22.10
2022-09-07T18:29:33.438Z,22.10
2022-09-07T18:32:04.439Z,22.00
2022-09-07T18:34:32.105Z,22.00
2022-09-07T18:36:59.586Z,22.00
2022-09-07T18:39:27.046Z,22.00
2022-09-07T18:41:54.480Z,21.90
2022-09-07T18:47:08.589Z,21.80
2022-09-07T18:49:35.561Z,21.80
2022-09-07T18:54:50.539Z,21.70
2022-09-07T18:57:17.247Z,21.70
2022-09-07T18:59:43.980Z,21.70
2022-09-07T19:02:10.719Z,21.70
2022-09-07T19:07:29.549Z,21.60
2022-09-07T19:10:09.692Z,21.60
2022-09-07T19:12:39.849Z,21.60
2022-09-07T19:15:26.071Z,21.50
2022-09-07T19:17:57.874Z,21.60
2022-09-07T19:20:27.146Z,21.40
2022-09-07T19:22:53.778Z,21.40
2022-09-07T19:25:27.574Z,21.40
2022-09-07T19:27:55.642Z,21.30
2022-09-07T19:30:23.620Z,21.30
2022-09-07T19:32:51.062Z,21.20
2022-09-07T19:35:18.438Z,21.20
2022-09-07T19:37:45.973Z,21.20
2022-09-07T19:40:18.598Z,21.10
2022-09-07T19:42:45.924Z,21.10
2022-09-07T19:45:12.578Z,21.00
2022-09-07T19:47:39.262Z,21.00
2022-09-07T19:50:06.286Z,21.00
2022-09-07T19:52:32.975Z,20.90
2022-09-07T19:55:03.301Z,20.90
2022-09-07T19:57:30.041Z,20.80
2022-09-07T19:59:57.306Z,20.80
2022-09-07T20:02:23.928Z,20.70
2022-09-07T20:04:50.598Z,20.70
2022-09-07T20:07:17.259Z,20.70
2022-09-07T20:09:43.890Z,20.60
2022-09-07T20:12:10.520Z,20.60
2022-09-07T20:14:37.299Z,20.50
2022-09-07T20:17:04.107Z,20.50
2022-09-07T20:19:30.774Z,20.40
2022-09-07T20:21:57.418Z,20.40
2022-09-07T20:24:24.692Z,20.30
2022-09-07T20:26:51.460Z,20.30
2022-09-07T20:29:33.536Z,20.30
2022-09-07T20:32:01.120Z,20.30
2022-09-07T20:34:28.621Z,20.20
2022-09-07T20:36:56.510Z,20.20
2022-09-07T20:39:23.965Z,20.20
2022-09-07T20:41:50.820Z,20.10
2022-09-07T20:44:17.472Z,20.10
2022-09-07T20:46:44.322Z,20.10
2022-09-07T20:49:11.183Z,20.00
2022-09-07T20:51:38.650Z,20.00
2022-09-07T20:54:05.684Z,20.00
2022-09-07T20:56:32.392Z,20.00
2022-09-07T20:59:00.530Z,20.00
2022-09-07T21:01:29.078Z,19.90
2022-09-07T21:03:57.876Z,19.80
2022-09-07T21:06:25.864Z,19.90
2022-09-07T21:08:53.306Z,19.80
2022-09-07T21:11:21.179Z,19.80
2022-09-07T21:13:53.846Z,19.80
2022-09-07T21:16:20.438Z,19.70
2022-09-07T21:18:47.086Z,19.70
2022-09-07T21:21:21.036Z,19.70
2022-09-07T21:23:48.148Z,19.70
2022-09-07T21:26:19.567Z,19.70
2022-09-07T21:28:46.174Z,19.60
2022-09-07T21:31:12.811Z,19.60
2022-09-07T21:33:39.464Z,19.60
2022-09-07T21:36:11.195Z,19.60
2022-09-07T21:38:39.554Z,19.50
2022-09-07T21:41:12.171Z,19.50
2022-09-07T21:43:39.094Z,19.50
2022-09-07T21:46:13.464Z,19.50
2022-09-07T21:48:40.510Z,19.50
2022-09-07T21:51:07.793Z,19.50
2022-09-07T21:53:35.047Z,19.50
2022-09-07T21:56:08.433Z,19.50
2022-09-07T21:58:35.767Z,19.50
2022-09-07T22:01:11.869Z,19.50
2022-09-07T22:03:40.249Z,19.50
2022-09-07T22:06:07.832Z,19.50
2022-09-07T22:08:36.159Z,19.50
2022-09-07T22:11:04.795Z,19.50
2022-09-07T22:13:31.566Z,19.50
2022-09-07T22:15:58.543Z,19.60
2022-09-07T22:18:25.204Z,19.60
2022-09-07T22:21:05.412Z,19.60
2022-09-07T22:23:33.614Z,19.60
2022-09-07T22:26:00.579Z,19.60
2022-09-07T22:28:29.826Z,19.60
2022-09-07T22:31:07.069Z,19.60
2022-09-07T22:33:33.780Z,19.60
2022-09-07T22:36:11.282Z,19.60
2022-09-07T22:38:38.613Z,19.60
2022-09-07T22:41:10.409Z,19.60
2022-09-07T22:43:37.391Z,19.60
2022-09-07T22:46:05.013Z,19.60
2022-09-07T22:48:32.099Z,19.60
2022-09-07T22:51:00.098Z,19.60
2022-09-07T22:53:27.903Z,19.60
2022-09-07T22:55:55.696Z,19.60
2022-09-07T22:58:28.867Z,19.60
2022-09-07T23:01:01.055Z,19.70
2022-09-07T23:03:28.985Z,19.70
2022-09-07T23:05:56.741Z,19.70
2022-09-07T23:08:24.900Z,19.70
2022-09-07T23:10:51.800Z,19.60
2022-09-07T23:13:19.076Z,19.60
2022-09-07T23:15:46.994Z,19.70
2022-09-07T23:18:18.946Z,19.70
2022-09-07T23:20:46.484Z,19.70
2022-09-07T23:23:13.376Z,19.70
2022-09-07T23:25:41.813Z,19.70
2022-09-07T23:28:12.178Z,19.60
2022-09-07T23:30:40.502Z,19.60
2022-09-07T23:33:07.391Z,19.70
2022-09-07T23:35:34.006Z,19.70
2022-09-07T23:38:00.616Z,19.60
2022-09-07T23:40:30.181Z,19.50
2022-09-07T23:42:56.842Z,19.50
2022-09-07T23:45:23.636Z,19.50
2022-09-07T23:47:50.351Z,19.50
2022-09-07T23:50:17.064Z,19.50
2022-09-07T23:52:43.768Z,19.50
2022-09-07T23:55:10.971Z,19.50
2022-09-07T23:57:38.890Z,19.50
